createdAt,value
2023-05-02T00:09:15.200Z,1.70
2023-05-02T00:13:40.595Z,2.70
2023-05-02T00:18:22.803Z,2.50
2023-05-02T00:22:54.003Z,2.00
2023-05-02T00:27:36.905Z,1.20
2023-05-02T00:32:43.915Z,1.30
2023-05-02T00:37:54.281Z,1.30
2023-05-02T00:42:27.331Z,1.20
2023-05-02T00:46:52.359Z,1.80
2023-05-02T00:52:04.290Z,1.80
2023-05-02T00:56:34.512Z,2.20
2023-05-02T01:01:22.347Z,1.30
2023-05-02T01:06:08.634Z,1.20
2023-05-02T01:11:25.560Z,1.10
2023-05-02T01:16:09.657Z,1.10
2023-05-02T01:21:04.048Z,1.30
2023-05-02T01:25:56.765Z,1.40
2023-05-02T01:30:27.106Z,1.40
2023-05-02T01:35:24.810Z,1.10
2023-05-02T01:39:50.043Z,1.30
2023-05-02T01:44:42.743Z,1.60
2023-05-02T01:49:14.886Z,1.30
2023-05-02T01:54:02.658Z,1.00
2023-05-02T01:58:36.256Z,1.00
2023-05-02T02:03:34.724Z,1.20
2023-05-02T02:08:02.391Z,1.40
2023-05-02T02:12:27.063Z,1.40
2023-05-02T02:16:59.587Z,1.00
2023-05-02T02:21:59.909Z,1.30
2023-05-02T02:26:36.103Z,1.20
2023-05-02T02:31:07.031Z,0.90
2023-05-02T02:35:44.924Z,1.00
2023-05-02T02:40:18.258Z,1.20
2023-05-02T02:44:52.810Z,1.30
2023-05-02T02:49:30.831Z,1.30
2023-05-02T02:54:46.737Z,1.00
2023-05-02T02:59:42.842Z,1.00
2023-05-02T03:09:09.642Z,1.20
2023-05-02T03:14:00.177Z,1.20
2023-05-02T03:18:37.802Z,1.30
2023-05-02T03:23:22.902Z,1.20
2023-05-02T03:28:27.341Z,1.10
2023-05-02T03:32:56.117Z,1.30
2023-05-02T03:37:20.967Z,1.10
2023-05-02T03:41:46.786Z,1.00
2023-05-02T03:46:18.887Z,1.30
2023-05-02T03:50:52.698Z,0.90
2023-05-02T03:55:40.072Z,1.10
2023-05-02T04:00:43.712Z,1.10
2023-05-02T04:05:08.719Z,1.10
2023-05-02T04:10:00.305Z,1.50
2023-05-02T04:14:50.170Z,1.30
2023-05-02T04:19:13.218Z,1.50
2023-05-02T04:24:10.931Z,1.70
2023-05-02T04:28:40.486Z,1.60
2023-05-02T04:33:05.502Z,1.70
2023-05-02T04:38:11.333Z,1.50
2023-05-02T04:47:20.953Z,1.60
2023-05-02T04:52:15.507Z,2.00
2023-05-02T04:56:54.246Z,1.70
2023-05-02T05:02:06.888Z,2.20
2023-05-02T05:07:23.199Z,1.30
2023-05-02T05:11:57.658Z,2.10
2023-05-02T05:16:44.909Z,2.60
2023-05-02T05:21:23.902Z,2.30
2023-05-02T05:26:13.988Z,2.30
2023-05-02T05:30:42.451Z,2.20
2023-05-02T05:35:33.655Z,2.40
2023-05-02T05:40:23.611Z,2.50
2023-05-02T05:44:57.983Z,2.40
2023-05-02T05:50:07.171Z,2.40
2023-05-02T05:54:35.198Z,2.20
2023-05-02T05:58:59.816Z,3.40
2023-05-02T06:03:24.599Z,1.70
2023-05-02T06:07:57.605Z,2.40
2023-05-02T06:12:21.506Z,2.20
2023-05-02T06:16:54.406Z,1.90
2023-05-02T06:21:27.968Z,2.80
2023-05-02T06:26:06.012Z,2.00
2023-05-02T06:30:41.134Z,2.10
2023-05-02T06:35:06.138Z,2.20
2023-05-02T06:39:41.852Z,2.30
2023-05-02T06:44:20.866Z,1.80
2023-05-02T06:48:54.579Z,2.30
2023-05-02T06:53:37.023Z,1.70
2023-05-02T06:58:06.816Z,1.80
2023-05-02T07:02:58.583Z,1.40
2023-05-02T07:07:23.433Z,1.60
2023-05-02T07:11:59.382Z,1.80
2023-05-02T07:16:42.572Z,1.80
2023-05-02T07:21:07.658Z,1.80
2023-05-02T07:26:06.197Z,1.60
2023-05-02T07:30:30.421Z,1.90
2023-05-02T07:35:07.062Z,1.80
2023-05-02T07:39:33.954Z,1.50
2023-05-02T07:43:59.982Z,1.70
2023-05-02T07:48:26.125Z,1.80
2023-05-02T07:53:05.025Z,1.50
2023-05-02T07:57:28.925Z,1.30
2023-05-02T08:02:06.594Z,1.60
2023-05-02T08:06:34.364Z,1.40
2023-05-02T08:11:20.465Z,1.60
2023-05-02T08:20:44.482Z,1.80
2023-05-02T08:25:20.465Z,1.70
2023-05-02T08:30:18.405Z,1.50
2023-05-02T08:34:48.443Z,1.70
2023-05-02T08:39:23.555Z,2.20
2023-05-02T08:43:40.182Z,1.90
2023-05-02T08:48:11.176Z,2.40
2023-05-02T08:52:36.169Z,1.70
2023-05-02T08:57:07.168Z,1.50
2023-05-02T09:01:31.178Z,1.60
2023-05-02T09:05:55.154Z,1.60
2023-05-02T09:10:16.683Z,1.50
2023-05-02T09:15:08.429Z,1.90
2023-05-02T09:24:38.580Z,1.70
2023-05-02T09:29:27.519Z,1.70
2023-05-02T09:33:57.124Z,1.80
2023-05-02T09:38:39.234Z,1.70
2023-05-02T09:43:03.217Z,1.70
2023-05-02T09:47:52.574Z,1.60
2023-05-02T09:52:24.704Z,1.60
2023-05-02T10:02:01.032Z,1.70
2023-05-02T10:06:32.374Z,2.20
2023-05-02T10:10:58.412Z,1.70
2023-05-02T10:15:23.292Z,1.80
2023-05-02T10:24:53.766Z,2.00
2023-05-02T10:30:06.904Z,1.70
2023-05-02T10:34:33.812Z,2.20
2023-05-02T10:39:06.558Z,1.80
2023-05-02T10:48:49.262Z,1.80
2023-05-02T10:58:39.000Z,1.80
2023-05-02T11:03:25.560Z,2.00
2023-05-02T11:08:00.549Z,1.80
2023-05-02T11:12:51.124Z,2.10
2023-05-02T11:17:59.077Z,2.20
2023-05-02T11:22:14.581Z,2.10
2023-05-02T11:27:15.045Z,2.20
2023-05-02T11:31:42.587Z,1.90
2023-05-02T11:36:16.348Z,2.00
2023-05-02T11:40:54.243Z,1.80
2023-05-02T11:49:43.681Z,1.70
2023-05-02T11:54:14.268Z,2.10
2023-05-02T11:58:56.022Z,1.90
2023-05-02T12:03:41.435Z,1.80
2023-05-02T12:08:07.669Z,1.70
2023-05-02T12:12:30.522Z,1.90
2023-05-02T12:16:54.439Z,2.30
2023-05-02T12:21:25.420Z,2.20
2023-05-02T12:25:53.544Z,2.00
2023-05-02T12:30:26.530Z,1.70
2023-05-02T12:34:58.651Z,1.60
2023-05-02T12:39:32.464Z,1.70
2023-05-02T12:44:35.839Z,1.50
2023-05-02T12:49:28.362Z,1.70
2023-05-02T12:54:06.671Z,1.80
2023-05-02T12:58:54.707Z,1.60
2023-05-02T13:03:32.447Z,1.70
2023-05-02T13:08:02.177Z,1.80
2023-05-02T13:12:53.695Z,1.60
2023-05-02T13:17:49.569Z,1.80
2023-05-02T13:22:31.809Z,1.50
2023-05-02T13:27:02.724Z,1.60
2023-05-02T13:36:54.365Z,1.80
2023-05-02T13:41:29.392Z,1.50
2023-05-02T13:45:55.419Z,1.60
2023-05-02T13:50:27.382Z,1.40
2023-05-02T13:54:57.153Z,2.10
2023-05-02T13:59:26.811Z,1.40
2023-05-02T14:03:49.916Z,1.90
2023-05-02T14:08:23.297Z,1.70
2023-05-02T14:12:58.764Z,1.60
2023-05-02T14:22:35.311Z,2.20
2023-05-02T14:27:06.804Z,2.30
2023-05-02T14:31:47.487Z,1.90
2023-05-02T14:36:13.509Z,2.40
2023-05-02T14:46:24.467Z,1.80
2023-05-02T14:50:46.911Z,1.40
2023-05-02T14:55:10.813Z,1.70
2023-05-02T14:59:53.708Z,1.70
2023-05-02T15:04:37.779Z,1.70
2023-05-02T15:09:02.668Z,1.50
2023-05-02T15:13:29.457Z,2.30
2023-05-02T15:17:59.249Z,1.60
2023-05-02T15:28:07.611Z,1.50
2023-05-02T15:32:31.568Z,1.70
2023-05-02T15:37:22.758Z,1.60
2023-05-02T15:42:00.910Z,1.70
2023-05-02T15:46:26.892Z,1.90
2023-05-02T15:51:10.640Z,3.00
2023-05-02T15:55:36.550Z,3.60
2023-05-02T16:00:08.492Z,2.80
2023-05-02T16:04:49.022Z,1.90
2023-05-02T16:09:33.927Z,2.00
2023-05-02T16:14:17.604Z,2.10
2023-05-02T16:18:49.919Z,2.40
2023-05-02T16:23:13.853Z,1.70
2023-05-02T16:27:44.664Z,1.70
2023-05-02T16:32:22.556Z,2.10
2023-05-02T16:37:01.826Z,1.70
2023-05-02T16:45:49.657Z,1.90
2023-05-02T16:50:13.584Z,2.10
2023-05-02T16:55:09.596Z,2.30
2023-05-02T16:59:33.530Z,2.20
2023-05-02T17:04:13.867Z,2.20
2023-05-02T17:08:53.855Z,2.80
2023-05-02T17:13:55.261Z,3.00
2023-05-02T17:18:24.880Z,3.50
2023-05-02T17:22:59.714Z,3.70
2023-05-02T17:27:32.466Z,2.40
2023-05-02T17:31:58.463Z,1.90
2023-05-02T17:36:22.286Z,2.20
2023-05-02T17:40:47.440Z,2.00
2023-05-02T17:45:21.958Z,1.90
2023-05-02T17:49:45.217Z,2.00
2023-05-02T17:54:13.109Z,1.50
2023-05-02T18:03:37.767Z,2.00
2023-05-02T18:08:06.995Z,2.00
2023-05-02T18:12:55.677Z,1.60
2023-05-02T18:17:20.675Z,1.90
2023-05-02T18:22:00.590Z,1.90
2023-05-02T18:26:26.456Z,1.90
2023-05-02T18:30:50.944Z,1.70
2023-05-02T18:35:44.803Z,1.70
2023-05-02T18:40:19.669Z,1.90
2023-05-02T18:44:49.365Z,2.10
2023-05-02T18:49:23.050Z,1.70
2023-05-02T18:53:59.916Z,2.00
2023-05-02T18:58:34.761Z,2.00
2023-05-02T19:03:13.703Z,1.90
2023-05-02T19:07:38.439Z,1.80
2023-05-02T19:12:10.623Z,2.20
2023-05-02T19:16:37.807Z,1.60
2023-05-02T19:21:10.760Z,1.80
2023-05-02T19:25:34.660Z,1.90
2023-05-02T19:30:04.645Z,2.10
2023-05-02T19:34:39.858Z,1.90
2023-05-02T19:39:11.698Z,2.20
2023-05-02T19:43:47.381Z,2.00
2023-05-02T19:48:22.322Z,1.70
2023-05-02T19:53:13.751Z,1.80
2023-05-02T19:57:51.854Z,1.80
2023-05-02T20:02:29.733Z,2.00
2023-05-02T20:06:53.721Z,2.20
2023-05-02T20:11:51.992Z,1.80
2023-05-02T20:16:26.921Z,1.80
2023-05-02T20:21:00.086Z,2.00
2023-05-02T20:25:29.798Z,1.90
2023-05-02T20:30:04.555Z,2.10
2023-05-02T20:34:36.672Z,2.00
2023-05-02T20:39:04.676Z,2.30
2023-05-02T20:43:36.147Z,2.50
2023-05-02T20:48:05.930Z,2.60
2023-05-02T20:52:41.925Z,2.00
2023-05-02T20:57:11.944Z,2.40
2023-05-02T21:01:35.958Z,2.60
2023-05-02T21:06:05.755Z,2.30
2023-05-02T21:10:58.453Z,2.10
2023-05-02T21:15:30.138Z,2.10
2023-05-02T21:20:02.957Z,2.50
2023-05-02T21:24:31.135Z,2.20
2023-05-02T21:29:06.986Z,2.00
2023-05-02T21:33:34.898Z,1.80
2023-05-02T21:37:58.740Z,2.40
2023-05-02T21:42:26.979Z,2.30
2023-05-02T21:46:50.109Z,2.10
2023-05-02T21:51:14.360Z,1.80
2023-05-02T21:56:00.965Z,2.00
2023-05-02T22:00:24.865Z,2.20
2023-05-02T22:04:52.919Z,2.50
2023-05-02T22:09:17.405Z,2.30
2023-05-02T22:13:41.192Z,2.30
2023-05-02T22:18:05.617Z,2.30
2023-05-02T22:22:29.654Z,2.20
2023-05-02T22:26:47.439Z,2.40
2023-05-02T22:31:11.424Z,2.30
2023-05-02T22:35:41.169Z,2.20
2023-05-02T22:40:06.087Z,2.60
2023-05-02T22:44:33.768Z,2.20
2023-05-02T22:49:01.914Z,2.10
2023-05-02T22:53:24.767Z,2.80
2023-05-02T22:57:51.636Z,2.40
2023-05-02T23:02:15.638Z,2.50
2023-05-02T23:06:47.049Z,2.80
2023-05-02T23:11:13.175Z,2.70
2023-05-02T23:15:38.219Z,2.40
2023-05-02T23:20:03.361Z,2.70
2023-05-02T23:24:36.956Z,2.80
2023-05-02T23:29:01.988Z,2.60
2023-05-02T23:33:31.640Z,3.00
2023-05-02T23:38:01.328Z,3.00
2023-05-02T23:42:25.196Z,2.80
2023-05-02T23:46:49.211Z,2.50
2023-05-02T23:51:14.195Z,2.40
2023-05-02T23:55:38.189Z,2.50
